Buoy 13516

sailwx.info

Track history (hours):
 
Tides and Currents Weather Stations Pressure Air Temp Water Temp Dewpoint Dewpoint Depression Visibility Wind Speed Wind Dir Waves Ship Positions

Ao Chao Yang 13516

Last reported at 2016-May-26 01:08 UTC. Time now 2016-May-26 02:46 UTC.
Position N 30°07' W 039°57'.

Length 20 m.

Type: Fishing. MMSI: 412469022.

Water temperature 22.9 ° C

Date/timePositionNaut miles runAvg speedWind from/ knotsBaromVisibWave heightAir tempDewpointWater temp
2016-May-26 01:08N 30°07' W 039°57'0 0.6 22.9
2016-May-26 00:20N 30°08' W 039°57'0 0.6 23.0
2016-May-25 23:33N 30°08' W 039°57'0 1.9 23.0
2016-May-25 23:26N 30°08' W 039°57'1 1.1 23.0
2016-May-25 22:41N 30°09' W 039°57'1 0.7 23.1
2016-May-25 21:56N 30°09' W 039°57'0 1.3 23.1
2016-May-25 21:45N 30°09' W 039°58'0 3.2 23.1
2016-May-25 21:41N 30°09' W 039°57'0 1.4 23.2
2016-May-25 21:26N 30°09' W 039°58'1 0.5 23.2
2016-May-25 20:15N 30°10' W 039°58'0 0.0 23.3
2016-May-25 20:06N 30°10' W 039°58'0 1.8 23.3
2016-May-25 19:51N 30°10' W 039°59'1 3.4 23.3
2016-May-25 19:41N 30°10' W 039°59'0 0.3
2016-May-25 18:33N 30°09' W 039°59'1 2.0 23.3
2016-May-25 18:05N 30°10' W 040°00'0 0.0 23.3
2016-May-25 16:56N 30°10' W 040°00'0 3.1 23.3
2016-May-25 16:54N 30°10' W 040°00'119.5 23.3
2016-May-25 16:50N 30°10' W 040°02'1 0.3 23.3
2016-May-25 14:39N 30°10' W 040°02'0 0.0 23.0
2016-May-25 13:56N 30°10' W 040°02'0 1.5 22.9
2016-May-25 13:48N 30°09' W 040°02'1 0.7 22.9
2016-May-25 12:54N 30°09' W 040°03'0 0.1 22.8
2016-May-25 12:09N 30°09' W 040°03'1 0.6
2016-May-25 11:18N 30°09' W 040°04'0 0.0 22.6
2016-May-25 10:38N 30°09' W 040°04'0 0.6 22.6
2016-May-25 10:11N 30°09' W 040°04'0 3.2 22.5
2016-May-25 10:03N 30°09' W 040°03'1 0.9 22.5
2016-May-25 09:26N 30°09' W 040°04'0 2.8 22.5
2016-May-25 09:18N 30°08' W 040°04'0 0.3 22.5
2016-May-25 08:56N 30°08' W 040°04'0 0.5 22.5
2016-May-25 08:29N 30°08' W 040°04'0 1.4 22.5
2016-May-25 08:20N 30°08' W 040°04'0 0.0 22.5
2016-May-25 07:48N 30°08' W 040°04'0 0.4 22.5
2016-May-25 07:23N 30°08' W 040°04'0 3.6 22.6
2016-May-25 07:17N 30°08' W 040°04'0 2.7 22.6
2016-May-25 07:09N 30°08' W 040°04'121.3 22.6
2016-May-25 07:06N 30°07' W 040°03'0 0.3
2016-May-25 05:29N 30°08' W 040°03'120.0 22.7
2016-May-25 05:26N 30°08' W 040°02'0 0.0 22.7
2016-May-25 03:48N 30°08' W 040°02'0 0.0
2016-May-25 01:26N 30°08' W 040°02'0 0.2 22.9
2016-May-25 00:36N 30°08' W 040°02'1 0.9 22.9
2016-May-24 23:54N 30°08' W 040°01'0 0.0 22.9
2016-May-24 23:51N 30°08' W 040°01'0 0.0 22.9
2016-May-24 23:47N 30°08' W 040°01'0 4.2 22.9
2016-May-24 23:44N 30°09' W 040°02'0 0.0 22.9
2016-May-24 23:03N 30°09' W 040°02'0 1.9 23.0
2016-May-24 22:56N 30°08' W 040°01'1 0.4 23.0
2016-May-24 21:41N 30°09' W 040°02'0 0.4 23.0
2016-May-24 20:44N 30°09' W 040°02'0 0.0 23.0
2016-May-24 20:39N 30°09' W 040°02'0 2.9 23.0
2016-May-24 20:29N 30°10' W 040°02'0 0.0 23.0
2016-May-24 20:05N 30°10' W 040°02'0 1.1 23.0
2016-May-24 19:56N 30°09' W 040°02'118.8 23.0
2016-May-24 19:54N 30°10' W 040°03'0 0.4 23.0
2016-May-24 18:48N 30°10' W 040°04'1 8.4 23.0
2016-May-24 18:42N 30°09' W 040°04'0 0.0 23.0
2016-May-24 18:20N 30°09' W 040°04'1 0.3 23.0
2016-May-24 14:15N 30°09' W 040°05'0 2.1 22.9
2016-May-24 14:09N 30°09' W 040°06'0 0.0 22.9
2016-May-24 13:26N 30°09' W 040°06'0 0.5 22.8
2016-May-24 12:32N 30°08' W 040°06'1 1.0 22.8
2016-May-24 11:38N 30°08' W 040°06'0 0.0 22.7
2016-May-24 11:02N 30°08' W 040°06'0 0.0 22.7
2016-May-24 10:23N 30°08' W 040°06'0 0.4 22.7
2016-May-24 10:11N 30°08' W 040°06'0 0.0
2016-May-24 09:56N 30°08' W 040°06'1 1.0 22.7
2016-May-24 09:23N 30°07' W 040°06'0 0.6 22.8
2016-May-24 08:41N 30°07' W 040°06'0 2.2 22.8
2016-May-24 08:35N 30°07' W 040°06'0 9.5 22.8
2016-May-24 08:32N 30°06' W 040°06'0 1.7 22.8
2016-May-24 08:21N 30°07' W 040°06'0 0.6 22.8
2016-May-24 07:48N 30°06' W 040°06'0 0.3 22.8
2016-May-24 07:27N 30°06' W 040°06'0 0.2 22.8
2016-May-24 05:50N 30°06' W 040°06'1 5.7 22.9
2016-May-24 05:39N 30°07' W 040°05'0 0.0 22.9
2016-May-24 01:03N 30°07' W 040°05'0 0.5 23.0
2016-May-24 00:56N 30°07' W 040°05'0 0.4 23.0
2016-May-24 00:11N 30°07' W 040°04'014.0 23.0
2016-May-24 00:09N 30°07' W 040°04'1 0.8 23.0
2016-May-23 23:24N 30°07' W 040°04'0 0.4 23.0
2016-May-23 22:45N 30°07' W 040°04'0 7.3 23.0
2016-May-23 22:42N 30°07' W 040°04'0 0.0 23.0
2016-May-23 22:35N 30°07' W 040°04'0 1.4 23.0
2016-May-23 22:26N 30°07' W 040°05'0 0.0 23.0
2016-May-23 21:54N 30°07' W 040°05'0 2.2 23.0
2016-May-23 21:48N 30°07' W 040°05'1 0.7 23.0
2016-May-23 21:00N 30°07' W 040°05'0 0.0
2016-May-23 20:59N 30°07' W 040°05'0 0.1 23.1
2016-May-23 20:11N 30°07' W 040°06'1 1.1
2016-May-23 19:29N 30°08' W 040°05'1 3.8 23.2
2016-May-23 19:21N 30°08' W 040°06'0 0.2 23.2
2016-May-23 18:33N 30°08' W 040°06'0 0.3 23.2
2016-May-23 17:21N 30°08' W 040°06'1 0.7 23.3
2016-May-23 15:39N 30°08' W 040°08'1 0.3 23.2
2016-May-23 13:47N 30°08' W 040°08'1 0.6 23.0
2016-May-23 12:56N 30°08' W 040°09'0 0.3 23.0
2016-May-23 11:59N 30°08' W 040°09'1 1.7 22.9
2016-May-23 11:11N 30°07' W 040°10'0 0.0 22.9
2016-May-23 10:33N 30°07' W 040°10'0 1.4 22.9
2016-May-23 10:26N 30°07' W 040°10'1 0.8 22.9
2016-May-23 09:44N 30°06' W 040°10'0 0.2 22.9
2016-May-23 08:56N 30°06' W 040°09'0 0.0 22.9
2016-May-23 08:51N 30°06' W 040°09'0 0.0 22.9
2016-May-23 08:48N 30°06' W 040°09'0 0.0 22.9
2016-May-23 08:44N 30°06' W 040°09'0 9.1 22.9
2016-May-23 08:42N 30°06' W 040°09'0 0.1 22.9
2016-May-23 08:09N 30°06' W 040°09'0 3.2 22.9
2016-May-23 08:03N 30°06' W 040°10'0 0.0 22.9
2016-May-23 07:38N 30°06' W 040°10'0 5.2 22.9
2016-May-23 07:35N 30°06' W 040°09'0 0.0 22.9
2016-May-23 07:11N 30°06' W 040°09'1 5.3 22.9
2016-May-23 07:05N 30°06' W 040°09'0 0.0 22.9
2016-May-23 05:56N 30°06' W 040°09'2 0.9 23.0
2016-May-23 04:11N 30°07' W 040°07'0 0.0 23.0
2016-May-23 01:23N 30°07' W 040°07'0 5.9 23.0
2016-May-23 01:18N 30°08' W 040°07'1 0.7 23.0
2016-May-23 00:29N 30°08' W 040°06'1 0.5 23.0
2016-May-22 23:14N 30°08' W 040°06'0 0.5 23.1
2016-May-22 22:53N 30°09' W 040°06'0 4.1 23.1
2016-May-22 22:47N 30°09' W 040°07'0 0.0 23.1
2016-May-22 22:05N 30°09' W 040°07'0 3.7 23.1
2016-May-22 22:00N 30°09' W 040°07'0 0.0 23.1
2016-May-22 21:41N 30°09' W 040°07'0 1.2 23.2
2016-May-22 21:32N 30°09' W 040°07'0 0.4 23.2
2016-May-22 20:26N 30°10' W 040°07'0 3.6 23.2
2016-May-22 20:18N 30°10' W 040°07'0 0.0 23.2
2016-May-22 19:53N 30°10' W 040°07'014.1 23.3
2016-May-22 19:51N 30°10' W 040°07'1 0.8 23.3
2016-May-22 18:08N 30°10' W 040°08'0 0.0 23.3
2016-May-22 17:33N 30°10' W 040°08'0 0.8 23.3
2016-May-22 17:29N 30°10' W 040°08'2 1.1 23.3
2016-May-22 15:51N 30°10' W 040°10'0 0.2 23.2
2016-May-22 14:02N 30°10' W 040°10'0 0.0 23.1
2016-May-22 13:20N 30°10' W 040°10'0 1.2 23.0
2016-May-22 13:15N 30°10' W 040°10'0 1.9 23.0
2016-May-22 13:09N 30°10' W 040°11'0 0.0 23.0
2016-May-22 12:29N 30°10' W 040°11'0 0.5 23.0
2016-May-22 11:35N 30°10' W 040°11'0 1.0 23.0
2016-May-22 11:32N 30°10' W 040°11'0 0.1 23.0
2016-May-22 10:44N 30°10' W 040°11'0 5.3 22.9
2016-May-22 10:41N 30°10' W 040°11'1 0.5 22.9
2016-May-22 09:23N 30°10' W 040°12'0 0.8 22.8
2016-May-22 09:02N 30°11' W 040°12'0 0.1 22.8
2016-May-22 07:42N 30°11' W 040°12'0 0.1 22.8
2016-May-22 07:21N 30°11' W 040°12'0 4.3 22.8
2016-May-22 07:17N 30°11' W 040°12'0 0.0 22.8
2016-May-22 06:54N 30°11' W 040°12'1 1.0 22.9
2016-May-22 06:08N 30°11' W 040°13'0 2.5 22.9
2016-May-22 06:00N 30°11' W 040°13'2 1.2 22.9
2016-May-22 04:23N 30°12' W 040°15'0 0.0 22.9
2016-May-22 00:53N 30°12' W 040°15'0 2.1 23.0
2016-May-22 00:50N 30°12' W 040°14'1 1.0 23.0
2016-May-21 23:56N 30°13' W 040°15'0 0.3 23.1
2016-May-21 23:11N 30°13' W 040°15'110.8 23.2
2016-May-21 23:08N 30°13' W 040°15'0 0.0 23.2
2016-May-21 22:24N 30°13' W 040°15'0 2.0 23.2
2016-May-21 22:20N 30°13' W 040°15'0 4.8 23.2
2016-May-21 22:17N 30°14' W 040°16'0 1.5 23.2
2016-May-21 22:06N 30°13' W 040°15'1 0.6 23.2
2016-May-21 20:39N 30°14' W 040°16'0 1.2 23.3
2016-May-21 20:33N 30°14' W 040°16'1 5.7 23.3
2016-May-21 20:26N 30°13' W 040°17'0 0.0
2016-May-21 20:23N 30°13' W 040°17'0 0.0 23.3
2016-May-21 20:18N 30°13' W 040°17'1 0.5 23.3
2016-May-21 18:56N 30°14' W 040°18'1 1.7 23.4
2016-May-21 18:36N 30°13' W 040°18'1 0.3 23.4
2016-May-21 16:03N 30°13' W 040°19'0 0.0 23.4
2016-May-21 15:56N 30°13' W 040°19'1 0.7 23.4
2016-May-21 14:24N 30°13' W 040°20'0 0.1 23.3
2016-May-21 13:39N 30°13' W 040°21'0 1.9 23.2
2016-May-21 13:30N 30°13' W 040°21'0 0.0 23.2
2016-May-21 12:47N 30°13' W 040°21'0 0.6 23.2
2016-May-21 12:41N 30°13' W 040°21'0 0.2 23.1
2016-May-21 11:54N 30°13' W 040°21'0 9.6 23.1
2016-May-21 11:51N 30°13' W 040°21'0 0.6 23.1
2016-May-21 11:02N 30°13' W 040°22'0 0.0 23.0
2016-May-21 10:54N 30°13' W 040°22'0 1.3 23.0
2016-May-21 10:41N 30°13' W 040°22'0 0.2 23.0
2016-May-21 09:51N 30°13' W 040°22'0 4.0 23.0
2016-May-21 09:47N 30°13' W 040°22'0 0.1 23.0
2016-May-21 09:14N 30°13' W 040°22'0 2.5 23.0
2016-May-21 09:06N 30°13' W 040°22'0 0.0 23.0
2016-May-21 08:53N 30°13' W 040°22'0 0.2 23.0
2016-May-21 07:56N 30°13' W 040°22'0 0.0
2016-May-21 07:33N 30°13' W 040°22'0 1.7 23.1
2016-May-21 07:26N 30°13' W 040°22'0 0.0
2016-May-21 06:33N 30°13' W 040°22'0 0.6 23.3
2016-May-21 06:23N 30°13' W 040°22'0 1.7 23.3
2016-May-21 06:14N 30°13' W 040°22'0 0.1 23.3
2016-May-21 04:39N 30°13' W 040°22'1 8.2 23.5
2016-May-21 04:33N 30°14' W 040°22'0 0.1 23.5
2016-May-21 01:11N 30°13' W 040°22'1 1.1 23.9
2016-May-21 00:26N 30°14' W 040°23'1 4.3 23.9
2016-May-21 00:18N 30°15' W 040°23'0 0.0 23.9
2016-May-20 23:36N 30°15' W 040°23'1 5.8 24.0
2016-May-20 23:29N 30°15' W 040°23'0 0.0 24.0
2016-May-20 22:39N 30°15' W 040°23'1 5.7 24.1
2016-May-20 22:26N 30°16' W 040°25'0 0.1 24.2
2016-May-20 21:03N 30°16' W 040°25'0 1.0 24.4
2016-May-20 20:53N 30°16' W 040°24'0 0.0 24.4
2016-May-20 20:50N 30°16' W 040°24'0 1.1 24.4
2016-May-20 20:41N 30°15' W 040°24'1 0.9 24.4
2016-May-20 19:17N 30°16' W 040°26'1 4.1 24.6
2016-May-20 19:09N 30°16' W 040°26'0 0.0 24.7
2016-May-20 17:56N 30°16' W 040°26'2 0.5 24.8
2016-May-20 14:44N 30°15' W 040°28'0 0.0 23.9
2016-May-20 14:00N 30°15' W 040°28'0 1.2 23.7
2016-May-20 13:54N 30°15' W 040°28'0 0.0 23.6
2016-May-20 13:08N 30°15' W 040°28'0 0.3 23.7
2016-May-20 12:11N 30°15' W 040°28'0 0.5 23.4
2016-May-20 11:21N 30°15' W 040°29'0 1.3 23.3
2016-May-20 11:05N 30°15' W 040°28'0 0.0 23.3
2016-May-20 11:00N 30°15' W 040°28'0 0.6 23.3
2016-May-20 10:21N 30°14' W 040°28'113.6 23.2
2016-May-20 10:18N 30°15' W 040°28'0 0.3 23.2
2016-May-20 09:17N 30°15' W 040°28'0 0.2 23.2
2016-May-20 07:39N 30°15' W 040°28'0 0.0 23.2
2016-May-20 07:06N 30°15' W 040°28'0 0.4 23.2
2016-May-20 06:33N 30°15' W 040°28'0 3.2 23.2
2016-May-20 06:26N 30°16' W 040°28'2 0.9 23.2
2016-May-20 04:44N 30°17' W 040°29'0 0.0 23.2
2016-May-20 01:32N 30°17' W 040°29'1 0.8 23.2
2016-May-20 00:39N 30°18' W 040°30'0 0.0 23.3
2016-May-19 23:56N 30°18' W 040°30'0 0.0
2016-May-19 23:50N 30°18' W 040°30'0 0.4 23.3
2016-May-19 23:09N 30°18' W 040°30'0 0.0 23.3
2016-May-19 23:06N 30°18' W 040°30'0 1.3 23.3
2016-May-19 22:59N 30°18' W 040°30'0 6.8 23.3
2016-May-19 22:56N 30°18' W 040°30'0 0.0 23.4
2016-May-19 22:09N 30°18' W 040°30'0 0.4
2016-May-19 21:35N 30°18' W 040°30'0 0.5 23.5
2016-May-19 20:56N 30°18' W 040°30'1 0.7 23.6
2016-May-19 19:53N 30°18' W 040°31'0 4.0 23.6
2016-May-19 19:48N 30°18' W 040°31'0 6.1 23.6
2016-May-19 19:45N 30°18' W 040°31'1 0.3 23.6
2016-May-19 18:00N 30°18' W 040°32'0 0.3 23.6
2016-May-19 16:26N 30°18' W 040°33'0 0.2 23.7
2016-May-19 14:15N 30°18' W 040°33'0 0.0 23.3
2016-May-19 13:30N 30°18' W 040°33'0 6.0 23.2
2016-May-19 13:27N 30°19' W 040°33'0 0.0 23.2
2016-May-19 12:41N 30°19' W 040°33'0 1.3 23.0
2016-May-19 12:32N 30°18' W 040°33'0 0.0 23.0
2016-May-19 11:45N 30°18' W 040°33'110.0 22.9
2016-May-19 11:41N 30°18' W 040°33'0 0.0 22.9
2016-May-19 11:15N 30°18' W 040°33'0 0.0 22.9
2016-May-19 10:57N 30°18' W 040°33'1 9.5 22.9
2016-May-19 10:53N 30°18' W 040°33'0 0.0 22.9
2016-May-19 09:53N 30°18' W 040°33'0 2.0 22.8
2016-May-19 09:41N 30°19' W 040°33'0 0.0 22.8
2016-May-19 09:36N 30°19' W 040°33'0 0.5 22.8
2016-May-19 09:11N 30°18' W 040°33'0 0.3 22.8
2016-May-19 08:12N 30°19' W 040°33'0 0.2 22.8
2016-May-19 07:56N 30°19' W 040°33'0 5.2 22.8
2016-May-19 07:51N 30°19' W 040°32'0 0.0 22.8
2016-May-19 06:44N 30°19' W 040°32'0 1.0 22.8
2016-May-19 06:41N 30°19' W 040°32'0 5.4 22.8
2016-May-19 06:36N 30°19' W 040°33'2 0.4 22.8
2016-May-19 01:06N 30°21' W 040°33'0 3.9 22.9
2016-May-19 01:00N 30°22' W 040°34'0 0.0 22.9
2016-May-19 00:18N 30°22' W 040°34'0 0.4 22.9
2016-May-18 23:26N 30°22' W 040°34'0 1.2 22.8
2016-May-18 23:23N 30°22' W 040°34'0 0.3 22.8
2016-May-18 22:38N 30°22' W 040°34'0 2.6 22.8
2016-May-18 22:35N 30°22' W 040°34'0 2.9 22.8
2016-May-18 22:29N 30°22' W 040°34'0 0.3 22.8
2016-May-18 22:03N 30°22' W 040°34'0 0.0 22.8
2016-May-18 21:32N 30°22' W 040°34'0 1.0 22.9
2016-May-18 21:24N 30°22' W 040°34'0 0.2 23.0
2016-May-18 21:09N 30°22' W 040°34'0 1.0 22.9
2016-May-18 21:06N 30°22' W 040°34'0 0.2 22.9
2016-May-18 20:18N 30°22' W 040°34'0 0.3 23.0
2016-May-18 19:53N 30°23' W 040°34'0 0.5 23.0
2016-May-18 19:44N 30°23' W 040°34'0 2.7 23.0
2016-May-18 19:33N 30°22' W 040°35'0 0.3 23.0
2016-May-18 18:11N 30°23' W 040°34'0 0.0 23.0
2016-May-18 18:09N 30°23' W 040°34'1 0.4
2016-May-18 16:38N 30°23' W 040°35'1 0.3 23.0
2016-May-18 14:53N 30°23' W 040°34'1 0.7 22.9
2016-May-18 13:50N 30°24' W 040°35'1 0.5 22.7
2016-May-18 12:06N 30°25' W 040°36'0 0.1 22.6
2016-May-18 11:21N 30°25' W 040°36'0 2.9 22.5
2016-May-18 11:15N 30°25' W 040°36'0 0.0 22.5
2016-May-18 10:17N 30°25' W 040°36'0 1.8 22.5
2016-May-18 10:08N 30°25' W 040°35'0 0.4 22.5
2016-May-18 09:50N 30°25' W 040°35'0 0.1 22.5
2016-May-18 08:33N 30°25' W 040°35'0 0.8 22.5
2016-May-18 08:09N 30°25' W 040°35'1 5.7 22.5
2016-May-18 08:02N 30°26' W 040°35'0 0.3 22.5
2016-May-18 06:26N 30°26' W 040°34'3 0.7 22.6
2016-May-18 01:26N 30°29' W 040°35'0 1.9 22.9
2016-May-18 01:20N 30°29' W 040°35'0 0.0 22.9
2016-May-18 00:39N 30°29' W 040°35'0 0.0 23.0
2016-May-18 00:36N 30°29' W 040°35'0 1.6 23.0
2016-May-18 00:32N 30°29' W 040°35'1 0.7 23.0
2016-May-17 22:56N 30°30' W 040°36'0 3.2 23.1
2016-May-17 22:53N 30°30' W 040°36'0 7.5 23.1
2016-May-17 22:50N 30°30' W 040°36'1 0.7 23.1
2016-May-17 22:02N 30°30' W 040°36'0 0.0 23.2
2016-May-17 21:56N 30°30' W 040°36'0 2.5 23.3
2016-May-17 21:47N 30°31' W 040°36'0 0.0 23.3
2016-May-17 21:24N 30°31' W 040°36'0 0.0 23.3
2016-May-17 21:21N 30°31' W 040°36'1 1.6 23.3
2016-May-17 20:56N 30°31' W 040°37'0 2.1 23.4
2016-May-17 20:47N 30°31' W 040°36'0 0.0 23.4
2016-May-17 20:18N 30°31' W 040°36'0 0.4 23.6
2016-May-17 20:11N 30°31' W 040°37'1 1.7 23.6
2016-May-17 19:41N 30°32' W 040°37'0 0.0 23.7
2016-May-17 18:36N 30°32' W 040°37'0 1.4 23.8
2016-May-17 18:26N 30°32' W 040°37'115.2 23.9
2016-May-17 18:23N 30°32' W 040°38'0 0.0 23.9
2016-May-17 16:41N 30°32' W 040°38'1 0.5 23.2
2016-May-17 15:06N 30°33' W 040°38'0 0.0 22.9
2016-May-17 14:08N 30°33' W 040°38'0 5.2 22.7
2016-May-17 14:05N 30°33' W 040°38'0 0.0 22.7
2016-May-17 13:23N 30°33' W 040°38'0 1.0 22.5
2016-May-17 13:20N 30°33' W 040°38'0 1.7 22.5
2016-May-17 13:11N 30°33' W 040°38'0 0.0 22.5
2016-May-17 11:39N 30°33' W 040°38'0 0.4 22.3
2016-May-17 10:48N 30°34' W 040°38'0 4.3 22.3
2016-May-17 10:44N 30°34' W 040°38'0 0.0 22.3
2016-May-17 10:39N 30°34' W 040°38'0 0.9 22.3
2016-May-17 10:17N 30°33' W 040°39'0 2.6 22.2
2016-May-17 10:11N 30°34' W 040°39'0 0.3 22.2
2016-May-17 10:02N 30°34' W 040°39'0 4.4 22.2
2016-May-17 09:56N 30°34' W 040°38'0 0.0 22.2
2016-May-17 08:56N 30°34' W 040°38'0 0.0 22.2
2016-May-17 08:41N 30°34' W 040°38'0 1.2 22.2
2016-May-17 08:33N 30°34' W 040°38'0 0.7 22.2
2016-May-17 08:20N 30°34' W 040°38'1 3.7 22.2
2016-May-17 08:11N 30°35' W 040°38'0 0.0 22.2
2016-May-17 07:21N 30°35' W 040°38'0 2.6 22.2
2016-May-17 07:18N 30°35' W 040°38'0 0.9 22.2
2016-May-17 07:08N 30°35' W 040°38'0 2.7 22.2
2016-May-17 07:00N 30°35' W 040°38'115.2 22.2
2016-May-17 06:56N 30°36' W 040°38'3 0.6 22.2
2016-May-17 01:47N 30°39' W 040°39'0 3.6 22.3
2016-May-17 01:41N 30°39' W 040°39'0 0.2 22.4
2016-May-17 00:56N 30°39' W 040°39'111.6 22.4
2016-May-17 00:53N 30°39' W 040°39'1 0.8 22.4
2016-May-17 00:00N 30°40' W 040°39'0 0.0 22.4
2016-May-16 23:20N 30°40' W 040°39'0 0.4 22.4
2016-May-16 23:11N 30°40' W 040°39'0 0.0 22.4
2016-May-16 23:03N 30°40' W 040°39'0 0.7 22.4
2016-May-16 22:27N 30°40' W 040°39'0 0.6 22.5
2016-May-16 21:35N 30°40' W 040°40'0 1.8 22.5
2016-May-16 21:33N 30°40' W 040°40'0 0.9 22.5
2016-May-16 21:29N 30°40' W 040°40'0 0.3 22.5
2016-May-16 20:42N 30°40' W 040°40'1 0.7 22.5
2016-May-16 19:56N 30°40' W 040°41'0 1.2 22.5
2016-May-16 19:53N 30°40' W 040°41'0 1.0 22.5
2016-May-16 19:41N 30°41' W 040°41'0 8.2
2016-May-16 19:39N 30°40' W 040°41'0 0.0 22.6
2016-May-16 18:59N 30°40' W 040°41'0 0.0 22.6
2016-May-16 18:39N 30°40' W 040°41'0 4.3 22.6
2016-May-16 18:33N 30°41' W 040°41'0 0.0 22.6
2016-May-16 18:11N 30°41' W 040°41'0 0.0 22.6
2016-May-16 16:56N 30°41' W 040°41'1 9.4 22.5
2016-May-16 16:51N 30°41' W 040°41'1 0.4 22.5
2016-May-16 14:27N 30°42' W 040°41'0 0.0 22.3
2016-May-16 13:41N 30°42' W 040°41'0 2.6 22.3
2016-May-16 13:33N 30°42' W 040°41'0 0.0 22.3
2016-May-16 12:51N 30°42' W 040°41'0 0.7 22.2
2016-May-16 12:44N 30°42' W 040°41'0 5.5 22.2
2016-May-16 12:41N 30°43' W 040°41'0 0.1 22.2
2016-May-16 11:56N 30°43' W 040°41'129.1
2016-May-16 11:54N 30°44' W 040°42'0 0.0 22.2
2016-May-16 11:09N 30°44' W 040°42'0 1.8 22.1
2016-May-16 11:05N 30°43' W 040°41'0 0.3 22.1
2016-May-16 10:11N 30°44' W 040°41'0 0.5 22.1
2016-May-16 09:24N 30°44' W 040°42'0 0.8 22.1
2016-May-16 09:11N 30°44' W 040°42'0 0.5 22.1
2016-May-16 08:32N 30°44' W 040°42'0 1.7 22.0
2016-May-16 08:21N 30°44' W 040°42'0 0.2
2016-May-16 07:47N 30°44' W 040°42'0 2.4 22.1
2016-May-16 07:44N 30°44' W 040°42'0 1.0 22.1
2016-May-16 07:38N 30°44' W 040°42'0 0.0 22.1
2016-May-16 07:32N 30°44' W 040°42'0 1.0 22.1
2016-May-16 07:18N 30°45' W 040°42'0 1.5 22.1
2016-May-16 07:14N 30°45' W 040°42'1 0.5 22.1
2016-May-16 05:41N 30°45' W 040°42'2 0.8 22.1
2016-May-16 03:50N 30°47' W 040°42'0 0.0 22.1
2016-May-16 01:20N 30°47' W 040°42'   22.2
Track history (hours):
 
Tides and Currents Weather Stations Pressure Air Temp Water Temp Dewpoint Dewpoint Depression Visibility Wind Speed Wind Dir Waves Ship Positions

Ao Chao Yang 13516

Last reported at 2016-May-26 01:08 UTC. Time now 2016-May-26 02:46 UTC.
Position N 30°07' W 039°57'.

Length 20 m.

Type: Fishing. MMSI: 412469022.

Water temperature 22.9 ° C

Date/timePositionNaut miles runAvg speedWind from/ knotsBaromVisibWave heightAir tempDewpointWater temp
2016-May-26 01:08N 30°07' W 039°57'0 0.6 22.9
2016-May-26 00:20N 30°08' W 039°57'0 0.6 23.0
2016-May-25 23:33N 30°08' W 039°57'0 1.9 23.0
2016-May-25 23:26N 30°08' W 039°57'1 1.1 23.0
2016-May-25 22:41N 30°09' W 039°57'1 0.7 23.1
2016-May-25 21:56N 30°09' W 039°57'0 1.3 23.1
2016-May-25 21:45N 30°09' W 039°58'0 3.2 23.1
2016-May-25 21:41N 30°09' W 039°57'0 1.4 23.2
2016-May-25 21:26N 30°09' W 039°58'1 0.5 23.2
2016-May-25 20:15N 30°10' W 039°58'0 0.0 23.3
2016-May-25 20:06N 30°10' W 039°58'0 1.8 23.3
2016-May-25 19:51N 30°10' W 039°59'1 3.4 23.3
2016-May-25 19:41N 30°10' W 039°59'0 0.3
2016-May-25 18:33N 30°09' W 039°59'1 2.0 23.3
2016-May-25 18:05N 30°10' W 040°00'0 0.0 23.3
2016-May-25 16:56N 30°10' W 040°00'0 3.1 23.3
2016-May-25 16:54N 30°10' W 040°00'119.5 23.3
2016-May-25 16:50N 30°10' W 040°02'1 0.3 23.3
2016-May-25 14:39N 30°10' W 040°02'0 0.0 23.0
2016-May-25 13:56N 30°10' W 040°02'0 1.5 22.9
2016-May-25 13:48N 30°09' W 040°02'1 0.7 22.9
2016-May-25 12:54N 30°09' W 040°03'0 0.1 22.8
2016-May-25 12:09N 30°09' W 040°03'1 0.6
2016-May-25 11:18N 30°09' W 040°04'0 0.0 22.6
2016-May-25 10:38N 30°09' W 040°04'0 0.6 22.6
2016-May-25 10:11N 30°09' W 040°04'0 3.2 22.5
2016-May-25 10:03N 30°09' W 040°03'1 0.9 22.5
2016-May-25 09:26N 30°09' W 040°04'0 2.8 22.5
2016-May-25 09:18N 30°08' W 040°04'0 0.3 22.5
2016-May-25 08:56N 30°08' W 040°04'0 0.5 22.5
2016-May-25 08:29N 30°08' W 040°04'0 1.4 22.5
2016-May-25 08:20N 30°08' W 040°04'0 0.0 22.5
2016-May-25 07:48N 30°08' W 040°04'0 0.4 22.5
2016-May-25 07:23N 30°08' W 040°04'0 3.6 22.6
2016-May-25 07:17N 30°08' W 040°04'0 2.7 22.6
2016-May-25 07:09N 30°08' W 040°04'121.3 22.6
2016-May-25 07:06N 30°07' W 040°03'0 0.3
2016-May-25 05:29N 30°08' W 040°03'120.0 22.7
2016-May-25 05:26N 30°08' W 040°02'0 0.0 22.7
2016-May-25 03:48N 30°08' W 040°02'0 0.0
2016-May-25 01:26N 30°08' W 040°02'0 0.2 22.9
2016-May-25 00:36N 30°08' W 040°02'1 0.9 22.9
2016-May-24 23:54N 30°08' W 040°01'0 0.0 22.9
2016-May-24 23:51N 30°08' W 040°01'0 0.0 22.9
2016-May-24 23:47N 30°08' W 040°01'0 4.2 22.9
2016-May-24 23:44N 30°09' W 040°02'0 0.0 22.9
2016-May-24 23:03N 30°09' W 040°02'0 1.9 23.0
2016-May-24 22:56N 30°08' W 040°01'1 0.4 23.0
2016-May-24 21:41N 30°09' W 040°02'0 0.4 23.0
2016-May-24 20:44N 30°09' W 040°02'0 0.0 23.0
2016-May-24 20:39N 30°09' W 040°02'0 2.9 23.0
2016-May-24 20:29N 30°10' W 040°02'0 0.0 23.0
2016-May-24 20:05N 30°10' W 040°02'0 1.1 23.0
2016-May-24 19:56N 30°09' W 040°02'118.8 23.0
2016-May-24 19:54N 30°10' W 040°03'0 0.4 23.0
2016-May-24 18:48N 30°10' W 040°04'1 8.4 23.0
2016-May-24 18:42N 30°09' W 040°04'0 0.0 23.0
2016-May-24 18:20N 30°09' W 040°04'1 0.3 23.0
2016-May-24 14:15N 30°09' W 040°05'0 2.1 22.9
2016-May-24 14:09N 30°09' W 040°06'0 0.0 22.9
2016-May-24 13:26N 30°09' W 040°06'0 0.5 22.8
2016-May-24 12:32N 30°08' W 040°06'1 1.0 22.8
2016-May-24 11:38N 30°08' W 040°06'0 0.0 22.7
2016-May-24 11:02N 30°08' W 040°06'0 0.0 22.7
2016-May-24 10:23N 30°08' W 040°06'0 0.4 22.7
2016-May-24 10:11N 30°08' W 040°06'0 0.0
2016-May-24 09:56N 30°08' W 040°06'1 1.0 22.7
2016-May-24 09:23N 30°07' W 040°06'0 0.6 22.8
2016-May-24 08:41N 30°07' W 040°06'0 2.2 22.8
2016-May-24 08:35N 30°07' W 040°06'0 9.5 22.8
2016-May-24 08:32N 30°06' W 040°06'0 1.7 22.8
2016-May-24 08:21N 30°07' W 040°06'0 0.6 22.8
2016-May-24 07:48N 30°06' W 040°06'0 0.3 22.8
2016-May-24 07:27N 30°06' W 040°06'0 0.2 22.8
2016-May-24 05:50N 30°06' W 040°06'1 5.7 22.9
2016-May-24 05:39N 30°07' W 040°05'0 0.0 22.9
2016-May-24 01:03N 30°07' W 040°05'0 0.5 23.0
2016-May-24 00:56N 30°07' W 040°05'0 0.4 23.0
2016-May-24 00:11N 30°07' W 040°04'014.0 23.0
2016-May-24 00:09N 30°07' W 040°04'1 0.8 23.0
2016-May-23 23:24N 30°07' W 040°04'0 0.4 23.0
2016-May-23 22:45N 30°07' W 040°04'0 7.3 23.0
2016-May-23 22:42N 30°07' W 040°04'0 0.0 23.0
2016-May-23 22:35N 30°07' W 040°04'0 1.4 23.0
2016-May-23 22:26N 30°07' W 040°05'0 0.0 23.0
2016-May-23 21:54N 30°07' W 040°05'0 2.2 23.0
2016-May-23 21:48N 30°07' W 040°05'1 0.7 23.0
2016-May-23 21:00N 30°07' W 040°05'0 0.0
2016-May-23 20:59N 30°07' W 040°05'0 0.1 23.1
2016-May-23 20:11N 30°07' W 040°06'1 1.1
2016-May-23 19:29N 30°08' W 040°05'1 3.8 23.2
2016-May-23 19:21N 30°08' W 040°06'0 0.2 23.2
2016-May-23 18:33N 30°08' W 040°06'0 0.3 23.2
2016-May-23 17:21N 30°08' W 040°06'1 0.7 23.3
2016-May-23 15:39N 30°08' W 040°08'1 0.3 23.2
2016-May-23 13:47N 30°08' W 040°08'1 0.6 23.0
2016-May-23 12:56N 30°08' W 040°09'0 0.3 23.0
2016-May-23 11:59N 30°08' W 040°09'1 1.7 22.9
2016-May-23 11:11N 30°07' W 040°10'0 0.0 22.9
2016-May-23 10:33N 30°07' W 040°10'0 1.4 22.9
2016-May-23 10:26N 30°07' W 040°10'1 0.8 22.9
2016-May-23 09:44N 30°06' W 040°10'0 0.2 22.9
2016-May-23 08:56N 30°06' W 040°09'0 0.0 22.9
2016-May-23 08:51N 30°06' W 040°09'0 0.0 22.9
2016-May-23 08:48N 30°06' W 040°09'0 0.0 22.9
2016-May-23 08:44N 30°06' W 040°09'0 9.1 22.9
2016-May-23 08:42N 30°06' W 040°09'0 0.1 22.9
2016-May-23 08:09N 30°06' W 040°09'0 3.2 22.9
2016-May-23 08:03N 30°06' W 040°10'0 0.0 22.9
2016-May-23 07:38N 30°06' W 040°10'0 5.2 22.9
2016-May-23 07:35N 30°06' W 040°09'0 0.0 22.9
2016-May-23 07:11N 30°06' W 040°09'1 5.3 22.9
2016-May-23 07:05N 30°06' W 040°09'0 0.0 22.9
2016-May-23 05:56N 30°06' W 040°09'2 0.9 23.0
2016-May-23 04:11N 30°07' W 040°07'0 0.0 23.0
2016-May-23 01:23N 30°07' W 040°07'0 5.9 23.0
2016-May-23 01:18N 30°08' W 040°07'1 0.7 23.0
2016-May-23 00:29N 30°08' W 040°06'1 0.5 23.0
2016-May-22 23:14N 30°08' W 040°06'0 0.5 23.1
2016-May-22 22:53N 30°09' W 040°06'0 4.1 23.1
2016-May-22 22:47N 30°09' W 040°07'0 0.0 23.1
2016-May-22 22:05N 30°09' W 040°07'0 3.7 23.1
2016-May-22 22:00N 30°09' W 040°07'0 0.0 23.1
2016-May-22 21:41N 30°09' W 040°07'0 1.2 23.2
2016-May-22 21:32N 30°09' W 040°07'0 0.4 23.2
2016-May-22 20:26N 30°10' W 040°07'0 3.6 23.2
2016-May-22 20:18N 30°10' W 040°07'0 0.0 23.2
2016-May-22 19:53N 30°10' W 040°07'014.1 23.3
2016-May-22 19:51N 30°10' W 040°07'1 0.8 23.3
2016-May-22 18:08N 30°10' W 040°08'0 0.0 23.3
2016-May-22 17:33N 30°10' W 040°08'0 0.8 23.3
2016-May-22 17:29N 30°10' W 040°08'2 1.1 23.3
2016-May-22 15:51N 30°10' W 040°10'0 0.2 23.2
2016-May-22 14:02N 30°10' W 040°10'0 0.0 23.1
2016-May-22 13:20N 30°10' W 040°10'0 1.2 23.0
2016-May-22 13:15N 30°10' W 040°10'0 1.9 23.0
2016-May-22 13:09N 30°10' W 040°11'0 0.0 23.0
2016-May-22 12:29N 30°10' W 040°11'0 0.5 23.0
2016-May-22 11:35N 30°10' W 040°11'0 1.0 23.0
2016-May-22 11:32N 30°10' W 040°11'0 0.1 23.0
2016-May-22 10:44N 30°10' W 040°11'0 5.3 22.9
2016-May-22 10:41N 30°10' W 040°11'1 0.5 22.9
2016-May-22 09:23N 30°10' W 040°12'0 0.8 22.8
2016-May-22 09:02N 30°11' W 040°12'0 0.1 22.8
2016-May-22 07:42N 30°11' W 040°12'0 0.1 22.8
2016-May-22 07:21N 30°11' W 040°12'0 4.3 22.8
2016-May-22 07:17N 30°11' W 040°12'0 0.0 22.8
2016-May-22 06:54N 30°11' W 040°12'1 1.0 22.9
2016-May-22 06:08N 30°11' W 040°13'0 2.5 22.9
2016-May-22 06:00N 30°11' W 040°13'2 1.2 22.9
2016-May-22 04:23N 30°12' W 040°15'0 0.0 22.9
2016-May-22 00:53N 30°12' W 040°15'0 2.1 23.0
2016-May-22 00:50N 30°12' W 040°14'1 1.0 23.0
2016-May-21 23:56N 30°13' W 040°15'0 0.3 23.1
2016-May-21 23:11N 30°13' W 040°15'110.8 23.2
2016-May-21 23:08N 30°13' W 040°15'0 0.0 23.2
2016-May-21 22:24N 30°13' W 040°15'0 2.0 23.2
2016-May-21 22:20N 30°13' W 040°15'0 4.8 23.2
2016-May-21 22:17N 30°14' W 040°16'0 1.5 23.2
2016-May-21 22:06N 30°13' W 040°15'1 0.6 23.2
2016-May-21 20:39N 30°14' W 040°16'0 1.2 23.3
2016-May-21 20:33N 30°14' W 040°16'1 5.7 23.3
2016-May-21 20:26N 30°13' W 040°17'0 0.0
2016-May-21 20:23N 30°13' W 040°17'0 0.0 23.3
2016-May-21 20:18N 30°13' W 040°17'1 0.5 23.3
2016-May-21 18:56N 30°14' W 040°18'1 1.7 23.4
2016-May-21 18:36N 30°13' W 040°18'1 0.3 23.4
2016-May-21 16:03N 30°13' W 040°19'0 0.0 23.4
2016-May-21 15:56N 30°13' W 040°19'1 0.7 23.4
2016-May-21 14:24N 30°13' W 040°20'0 0.1 23.3
2016-May-21 13:39N 30°13' W 040°21'0 1.9 23.2
2016-May-21 13:30N 30°13' W 040°21'0 0.0 23.2
2016-May-21 12:47N 30°13' W 040°21'0 0.6 23.2
2016-May-21 12:41N 30°13' W 040°21'0 0.2 23.1
2016-May-21 11:54N 30°13' W 040°21'0 9.6 23.1
2016-May-21 11:51N 30°13' W 040°21'0 0.6 23.1
2016-May-21 11:02N 30°13' W 040°22'0 0.0 23.0
2016-May-21 10:54N 30°13' W 040°22'0 1.3 23.0
2016-May-21 10:41N 30°13' W 040°22'0 0.2 23.0
2016-May-21 09:51N 30°13' W 040°22'0 4.0 23.0
2016-May-21 09:47N 30°13' W 040°22'0 0.1 23.0
2016-May-21 09:14N 30°13' W 040°22'0 2.5 23.0
2016-May-21 09:06N 30°13' W 040°22'0 0.0 23.0
2016-May-21 08:53N 30°13' W 040°22'0 0.2 23.0
2016-May-21 07:56N 30°13' W 040°22'0 0.0
2016-May-21 07:33N 30°13' W 040°22'0 1.7 23.1
2016-May-21 07:26N 30°13' W 040°22'0 0.0
2016-May-21 06:33N 30°13' W 040°22'0 0.6 23.3
2016-May-21 06:23N 30°13' W 040°22'0 1.7 23.3
2016-May-21 06:14N 30°13' W 040°22'0 0.1 23.3
2016-May-21 04:39N 30°13' W 040°22'1 8.2 23.5
2016-May-21 04:33N 30°14' W 040°22'0 0.1 23.5
2016-May-21 01:11N 30°13' W 040°22'1 1.1 23.9
2016-May-21 00:26N 30°14' W 040°23'1 4.3 23.9
2016-May-21 00:18N 30°15' W 040°23'0 0.0 23.9
2016-May-20 23:36N 30°15' W 040°23'1 5.8 24.0
2016-May-20 23:29N 30°15' W 040°23'0 0.0 24.0
2016-May-20 22:39N 30°15' W 040°23'1 5.7 24.1
2016-May-20 22:26N 30°16' W 040°25'0 0.1 24.2
2016-May-20 21:03N 30°16' W 040°25'0 1.0 24.4
2016-May-20 20:53N 30°16' W 040°24'0 0.0 24.4
2016-May-20 20:50N 30°16' W 040°24'0 1.1 24.4
2016-May-20 20:41N 30°15' W 040°24'1 0.9 24.4
2016-May-20 19:17N 30°16' W 040°26'1 4.1 24.6
2016-May-20 19:09N 30°16' W 040°26'0 0.0 24.7
2016-May-20 17:56N 30°16' W 040°26'2 0.5 24.8
2016-May-20 14:44N 30°15' W 040°28'0 0.0 23.9
2016-May-20 14:00N 30°15' W 040°28'0 1.2 23.7
2016-May-20 13:54N 30°15' W 040°28'0 0.0 23.6
2016-May-20 13:08N 30°15' W 040°28'0 0.3 23.7
2016-May-20 12:11N 30°15' W 040°28'0 0.5 23.4
2016-May-20 11:21N 30°15' W 040°29'0 1.3 23.3
2016-May-20 11:05N 30°15' W 040°28'0 0.0 23.3
2016-May-20 11:00N 30°15' W 040°28'0 0.6 23.3
2016-May-20 10:21N 30°14' W 040°28'113.6 23.2
2016-May-20 10:18N 30°15' W 040°28'0 0.3 23.2
2016-May-20 09:17N 30°15' W 040°28'0 0.2 23.2
2016-May-20 07:39N 30°15' W 040°28'0 0.0 23.2
2016-May-20 07:06N 30°15' W 040°28'0 0.4 23.2
2016-May-20 06:33N 30°15' W 040°28'0 3.2 23.2
2016-May-20 06:26N 30°16' W 040°28'2 0.9 23.2
2016-May-20 04:44N 30°17' W 040°29'0 0.0 23.2
2016-May-20 01:32N 30°17' W 040°29'1 0.8 23.2
2016-May-20 00:39N 30°18' W 040°30'0 0.0 23.3
2016-May-19 23:56N 30°18' W 040°30'0 0.0
2016-May-19 23:50N 30°18' W 040°30'0 0.4 23.3
2016-May-19 23:09N 30°18' W 040°30'0 0.0 23.3
2016-May-19 23:06N 30°18' W 040°30'0 1.3 23.3
2016-May-19 22:59N 30°18' W 040°30'0 6.8 23.3
2016-May-19 22:56N 30°18' W 040°30'0 0.0 23.4
2016-May-19 22:09N 30°18' W 040°30'0 0.4
2016-May-19 21:35N 30°18' W 040°30'0 0.5 23.5
2016-May-19 20:56N 30°18' W 040°30'1 0.7 23.6
2016-May-19 19:53N 30°18' W 040°31'0 4.0 23.6
2016-May-19 19:48N 30°18' W 040°31'0 6.1 23.6
2016-May-19 19:45N 30°18' W 040°31'1 0.3 23.6
2016-May-19 18:00N 30°18' W 040°32'0 0.3 23.6
2016-May-19 16:26N 30°18' W 040°33'0 0.2 23.7
2016-May-19 14:15N 30°18' W 040°33'0 0.0 23.3
2016-May-19 13:30N 30°18' W 040°33'0 6.0 23.2
2016-May-19 13:27N 30°19' W 040°33'0 0.0 23.2
2016-May-19 12:41N 30°19' W 040°33'0 1.3 23.0
2016-May-19 12:32N 30°18' W 040°33'0 0.0 23.0
2016-May-19 11:45N 30°18' W 040°33'110.0 22.9
2016-May-19 11:41N 30°18' W 040°33'0 0.0 22.9
2016-May-19 11:15N 30°18' W 040°33'0 0.0 22.9
2016-May-19 10:57N 30°18' W 040°33'1 9.5 22.9
2016-May-19 10:53N 30°18' W 040°33'0 0.0 22.9
2016-May-19 09:53N 30°18' W 040°33'0 2.0 22.8
2016-May-19 09:41N 30°19' W 040°33'0 0.0 22.8
2016-May-19 09:36N 30°19' W 040°33'0 0.5 22.8
2016-May-19 09:11N 30°18' W 040°33'0 0.3 22.8
2016-May-19 08:12N 30°19' W 040°33'0 0.2 22.8
2016-May-19 07:56N 30°19' W 040°33'0 5.2 22.8
2016-May-19 07:51N 30°19' W 040°32'0 0.0 22.8
2016-May-19 06:44N 30°19' W 040°32'0 1.0 22.8
2016-May-19 06:41N 30°19' W 040°32'0 5.4 22.8
2016-May-19 06:36N 30°19' W 040°33'2 0.4 22.8
2016-May-19 01:06N 30°21' W 040°33'0 3.9 22.9
2016-May-19 01:00N 30°22' W 040°34'0 0.0 22.9
2016-May-19 00:18N 30°22' W 040°34'0 0.4 22.9
2016-May-18 23:26N 30°22' W 040°34'0 1.2 22.8
2016-May-18 23:23N 30°22' W 040°34'0 0.3 22.8
2016-May-18 22:38N 30°22' W 040°34'0 2.6 22.8
2016-May-18 22:35N 30°22' W 040°34'0 2.9 22.8
2016-May-18 22:29N 30°22' W 040°34'0 0.3 22.8
2016-May-18 22:03N 30°22' W 040°34'0 0.0 22.8
2016-May-18 21:32N 30°22' W 040°34'0 1.0 22.9
2016-May-18 21:24N 30°22' W 040°34'0 0.2 23.0
2016-May-18 21:09N 30°22' W 040°34'0 1.0 22.9
2016-May-18 21:06N 30°22' W 040°34'0 0.2 22.9
2016-May-18 20:18N 30°22' W 040°34'0 0.3 23.0
2016-May-18 19:53N 30°23' W 040°34'0 0.5 23.0
2016-May-18 19:44N 30°23' W 040°34'0 2.7 23.0
2016-May-18 19:33N 30°22' W 040°35'0 0.3 23.0
2016-May-18 18:11N 30°23' W 040°34'0 0.0 23.0
2016-May-18 18:09N 30°23' W 040°34'1 0.4
2016-May-18 16:38N 30°23' W 040°35'1 0.3 23.0
2016-May-18 14:53N 30°23' W 040°34'1 0.7 22.9
2016-May-18 13:50N 30°24' W 040°35'1 0.5 22.7
2016-May-18 12:06N 30°25' W 040°36'0 0.1 22.6
2016-May-18 11:21N 30°25' W 040°36'0 2.9 22.5
2016-May-18 11:15N 30°25' W 040°36'0 0.0 22.5
2016-May-18 10:17N 30°25' W 040°36'0 1.8 22.5
2016-May-18 10:08N 30°25' W 040°35'0 0.4 22.5
2016-May-18 09:50N 30°25' W 040°35'0 0.1 22.5
2016-May-18 08:33N 30°25' W 040°35'0 0.8 22.5
2016-May-18 08:09N 30°25' W 040°35'1 5.7 22.5
2016-May-18 08:02N 30°26' W 040°35'0 0.3 22.5
2016-May-18 06:26N 30°26' W 040°34'3 0.7 22.6
2016-May-18 01:26N 30°29' W 040°35'0 1.9 22.9
2016-May-18 01:20N 30°29' W 040°35'0 0.0 22.9
2016-May-18 00:39N 30°29' W 040°35'0 0.0 23.0
2016-May-18 00:36N 30°29' W 040°35'0 1.6 23.0
2016-May-18 00:32N 30°29' W 040°35'1 0.7 23.0
2016-May-17 22:56N 30°30' W 040°36'0 3.2 23.1
2016-May-17 22:53N 30°30' W 040°36'0 7.5 23.1
2016-May-17 22:50N 30°30' W 040°36'1 0.7 23.1
2016-May-17 22:02N 30°30' W 040°36'0 0.0 23.2
2016-May-17 21:56N 30°30' W 040°36'0 2.5 23.3
2016-May-17 21:47N 30°31' W 040°36'0 0.0 23.3
2016-May-17 21:24N 30°31' W 040°36'0 0.0 23.3
2016-May-17 21:21N 30°31' W 040°36'1 1.6 23.3
2016-May-17 20:56N 30°31' W 040°37'0 2.1 23.4
2016-May-17 20:47N 30°31' W 040°36'0 0.0 23.4
2016-May-17 20:18N 30°31' W 040°36'0 0.4 23.6
2016-May-17 20:11N 30°31' W 040°37'1 1.7 23.6
2016-May-17 19:41N 30°32' W 040°37'0 0.0 23.7
2016-May-17 18:36N 30°32' W 040°37'0 1.4 23.8
2016-May-17 18:26N 30°32' W 040°37'115.2 23.9
2016-May-17 18:23N 30°32' W 040°38'0 0.0 23.9
2016-May-17 16:41N 30°32' W 040°38'1 0.5 23.2
2016-May-17 15:06N 30°33' W 040°38'0 0.0 22.9
2016-May-17 14:08N 30°33' W 040°38'0 5.2 22.7
2016-May-17 14:05N 30°33' W 040°38'0 0.0 22.7
2016-May-17 13:23N 30°33' W 040°38'0 1.0 22.5
2016-May-17 13:20N 30°33' W 040°38'0 1.7 22.5
2016-May-17 13:11N 30°33' W 040°38'0 0.0 22.5
2016-May-17 11:39N 30°33' W 040°38'0 0.4 22.3
2016-May-17 10:48N 30°34' W 040°38'0 4.3 22.3
2016-May-17 10:44N 30°34' W 040°38'0 0.0 22.3
2016-May-17 10:39N 30°34' W 040°38'0 0.9 22.3
2016-May-17 10:17N 30°33' W 040°39'0 2.6 22.2
2016-May-17 10:11N 30°34' W 040°39'0 0.3 22.2
2016-May-17 10:02N 30°34' W 040°39'0 4.4 22.2
2016-May-17 09:56N 30°34' W 040°38'0 0.0 22.2
2016-May-17 08:56N 30°34' W 040°38'0 0.0 22.2
2016-May-17 08:41N 30°34' W 040°38'0 1.2 22.2
2016-May-17 08:33N 30°34' W 040°38'0 0.7 22.2
2016-May-17 08:20N 30°34' W 040°38'1 3.7 22.2
2016-May-17 08:11N 30°35' W 040°38'0 0.0 22.2
2016-May-17 07:21N 30°35' W 040°38'0 2.6 22.2
2016-May-17 07:18N 30°35' W 040°38'0 0.9 22.2
2016-May-17 07:08N 30°35' W 040°38'0 2.7 22.2
2016-May-17 07:00N 30°35' W 040°38'115.2 22.2
2016-May-17 06:56N 30°36' W 040°38'3 0.6 22.2
2016-May-17 01:47N 30°39' W 040°39'0 3.6 22.3
2016-May-17 01:41N 30°39' W 040°39'0 0.2 22.4
2016-May-17 00:56N 30°39' W 040°39'111.6 22.4
2016-May-17 00:53N 30°39' W 040°39'1 0.8 22.4
2016-May-17 00:00N 30°40' W 040°39'0 0.0 22.4
2016-May-16 23:20N 30°40' W 040°39'0 0.4 22.4
2016-May-16 23:11N 30°40' W 040°39'0 0.0 22.4
2016-May-16 23:03N 30°40' W 040°39'0 0.7 22.4
2016-May-16 22:27N 30°40' W 040°39'0 0.6 22.5
2016-May-16 21:35N 30°40' W 040°40'0 1.8 22.5
2016-May-16 21:33N 30°40' W 040°40'0 0.9 22.5
2016-May-16 21:29N 30°40' W 040°40'0 0.3 22.5
2016-May-16 20:42N 30°40' W 040°40'1 0.7 22.5
2016-May-16 19:56N 30°40' W 040°41'0 1.2 22.5
2016-May-16 19:53N 30°40' W 040°41'0 1.0 22.5
2016-May-16 19:41N 30°41' W 040°41'0 8.2
2016-May-16 19:39N 30°40' W 040°41'0 0.0 22.6
2016-May-16 18:59N 30°40' W 040°41'0 0.0 22.6
2016-May-16 18:39N 30°40' W 040°41'0 4.3 22.6
2016-May-16 18:33N 30°41' W 040°41'0 0.0 22.6
2016-May-16 18:11N 30°41' W 040°41'0 0.0 22.6
2016-May-16 16:56N 30°41' W 040°41'1 9.4 22.5
2016-May-16 16:51N 30°41' W 040°41'1 0.4 22.5
2016-May-16 14:27N 30°42' W 040°41'0 0.0 22.3
2016-May-16 13:41N 30°42' W 040°41'0 2.6 22.3
2016-May-16 13:33N 30°42' W 040°41'0 0.0 22.3
2016-May-16 12:51N 30°42' W 040°41'0 0.7 22.2
2016-May-16 12:44N 30°42' W 040°41'0 5.5 22.2
2016-May-16 12:41N 30°43' W 040°41'0 0.1 22.2
2016-May-16 11:56N 30°43' W 040°41'129.1
2016-May-16 11:54N 30°44' W 040°42'0 0.0 22.2
2016-May-16 11:09N 30°44' W 040°42'0 1.8 22.1
2016-May-16 11:05N 30°43' W 040°41'0 0.3 22.1
2016-May-16 10:11N 30°44' W 040°41'0 0.5 22.1
2016-May-16 09:24N 30°44' W 040°42'0 0.8 22.1
2016-May-16 09:11N 30°44' W 040°42'0 0.5 22.1
2016-May-16 08:32N 30°44' W 040°42'0 1.7 22.0
2016-May-16 08:21N 30°44' W 040°42'0 0.2
2016-May-16 07:47N 30°44' W 040°42'0 2.4 22.1
2016-May-16 07:44N 30°44' W 040°42'0 1.0 22.1
2016-May-16 07:38N 30°44' W 040°42'0 0.0 22.1
2016-May-16 07:32N 30°44' W 040°42'0 1.0 22.1
2016-May-16 07:18N 30°45' W 040°42'0 1.5 22.1
2016-May-16 07:14N 30°45' W 040°42'1 0.5 22.1
2016-May-16 05:41N 30°45' W 040°42'2 0.8 22.1
2016-May-16 03:50N 30°47' W 040°42'0 0.0 22.1
2016-May-16 01:20N 30°47' W 040°42'   22.2

Dump ship's entire track history